CZ-0131 weather

Želeč Airstrip
South Bohemian Region, Czech Republic

Public forecast

Using degrees Celsius for public forecast. Weather courtesy of forecast.io.

Closest aviation weather report (METAR) to Želeč Airstrip

Closest report is Čáslav Air Base, 46.1 nm (85.4 km) NE. Retrieved 2020/08/05 15:30 UTC (0 seconds ago):

LKCV 051530Z 03007KT 350V060 CAVOK 24/09 Q1019 NOSIG

Closest aviation forecast (TAF) to Želeč Airstrip

Closest forecast is Čáslav Air Base, 46.1 nm (85.4 km) NE. Retrieved 2020/08/05 12:00 UTC (3 hours ago):

TAF LKCV 051100Z 0512/0612 04008KT CAVOK BECMG 0519/0521 VRB02KT